Corydon, IN

11:23 AM EDT on August 03, 2015 (GMT -0400)
k9set Harrison county skywarn | | Change Station
CLOSE
Current Station
Personal Weather Station
Location: corydon, IN
Elevation: 649 ft
Nearby Weather Stations

Elev 649 ft 38.21 °N, 86.11 °W | Updated 5 seconds ago

Clear
Clear
82.2 °F
Feels Like 87 °F
N
1.0
Wind Variable Wind from WSW
Gusts 12.0 mph

Today
High -- | Low -- °F
--% Chance of Precip.
Yesterday
High -- | Low -- °F
Precip. -- in
6:48 AM 8:52 PM
Waning Gibbous, 86% visible
Pressure 29.90 in
Visibility 10.0 miles
Clouds Few 20000 ft
Heat Index 87 °F
Dew Point 71 °F
Humidity 70%
Rainfall 0.00 in
Snow Depth Not available.
UV 6 out of 12
Pollen 5.80 out of 12
Air Quality Not available.
Flu Activity Not available.
METAR KSDF 031456Z 16010KT 10SM FEW200 26/17 A2991 RMK AO2 SLP123 T02610172 51009

More Conditions Fewer Conditions

Pressure 29.90 in
Visibility 10.0 miles
Clouds Few 20000 ft
Heat Index 87 °F
Dew Point 71 °F
Humidity 70%
Rainfall 0.00 in
Snow Depth Not available.
UV 6 out of 12
Pollen 5.80 out of 12
Air Quality Not available.
Flu Activity Not available.
METAR KSDF 031456Z 16010KT 10SM FEW200 26/17 A2991 RMK AO2 SLP123 T02610172 51009

More Conditions Fewer Conditions

10-Day Weather Forecast

×

Almanac

Astronomy

Aug. 03, 2015 Rise Set
Actual Time
Civil Twilight
Nautical Twilight
Astronomical Twilight
Moon
Length of Visible Light
Length of Day
Tomorrow will be .
, % of the Moon is Illuminated

Today's Extremes

State Highs State Lows

Community

WunderPhotos

Upload Photos

1,843,645 photos uploaded!

WunderBlogs® & News

Nearby

Air Quality

  Air Quality AQ Index Pollutant
Not available.

Snow Depth

Station Depth Elevation

Earthquake Activity

City Distance Mag. Time & Date
Minimum magnitude displayed is 2.5.

Coastal Water Temperatures

Place Temperature

Stations

Nearby Weather Stations

Station Location Temp. Windchill Dew Point Humidity Wind Precip. Elev Updated Type